Archiv

Tageswerte

Alle gespeicherten Messwerte deiner Wetterstation.

Ausgewählter Tag16.01.2024
← Vortag Nächster Tag → Heute
Messpunkte287
Max Temperatur0,9 °C
Min Temperatur-3,4 °C
Ø Temperatur-0,9 °C
Regen0,0 mm
Stärkste Böe28,3 km/h

Messwerte vom 16.01.2024

287 gespeicherte Messwerte

Diagramm anzeigen
ZeitTemperaturFeuchteDruckWindBöeRichtungRegenUVHelligkeit
23:59-3,4 °C79 %998,0 hPa1,9 km/h5,3 km/h165°0,0 mm
23:54-3,2 °C79 %998,0 hPa3,2 km/h8,5 km/h159°0,0 mm
23:49-3,1 °C78 %998,0 hPa2,1 km/h5,3 km/h170°0,0 mm
23:44-3,1 °C78 %998,0 hPa2,7 km/h6,8 km/h164°0,0 mm
23:39-3,0 °C78 %998,0 hPa1,5 km/h3,2 km/h156°0,0 mm
23:34-3,1 °C78 %998,0 hPa1,7 km/h6,8 km/h176°0,0 mm
23:29-3,2 °C78 %999,0 hPa2,0 km/h7,9 km/h178°0,0 mm
23:24-3,2 °C79 %999,0 hPa1,5 km/h6,1 km/h150°0,0 mm
23:19-3,3 °C79 %999,0 hPa1,6 km/h3,9 km/h244°0,0 mm
23:14-3,3 °C79 %998,0 hPa1,1 km/h2,7 km/h241°0,0 mm
23:09-3,3 °C79 %998,0 hPa1,5 km/h3,9 km/h233°0,0 mm
23:04-3,3 °C79 %998,0 hPa1,2 km/h2,7 km/h231°0,0 mm
22:59-3,3 °C79 %999,0 hPa1,7 km/h4,7 km/h236°0,0 mm
22:54-3,4 °C79 %999,0 hPa1,6 km/h7,9 km/h265°0,0 mm
22:49-3,4 °C79 %999,0 hPa0,9 km/h3,5 km/h217°0,0 mm
22:44-3,4 °C79 %999,0 hPa2,4 km/h6,1 km/h179°0,0 mm
22:39-3,4 °C79 %999,0 hPa0,4 km/h2,7 km/h177°0,0 mm
22:34-3,4 °C80 %999,0 hPa1,5 km/h2,7 km/h239°0,0 mm
22:29-3,4 °C79 %999,0 hPa1,1 km/h3,9 km/h204°0,0 mm
22:24-3,3 °C79 %999,0 hPa1,0 km/h3,9 km/h210°0,0 mm
22:19-3,3 °C79 %999,0 hPa1,5 km/h4,2 km/h208°0,0 mm
22:14-3,2 °C79 %999,0 hPa1,7 km/h5,0 km/h158°0,0 mm
22:09-3,1 °C79 %999,0 hPa2,7 km/h6,8 km/h161°0,0 mm
22:04-3,0 °C78 %999,0 hPa2,3 km/h3,5 km/h198°0,0 mm
21:59-2,9 °C78 %999,0 hPa3,2 km/h7,4 km/h170°0,0 mm
21:54-3,0 °C78 %999,0 hPa3,5 km/h6,8 km/h172°0,0 mm
21:49-3,0 °C78 %999,0 hPa4,0 km/h9,3 km/h180°0,0 mm
21:44-3,0 °C78 %999,0 hPa3,2 km/h7,9 km/h192°0,0 mm
21:39-3,0 °C79 %999,0 hPa3,5 km/h8,5 km/h185°0,0 mm
21:34-2,9 °C78 %999,0 hPa1,8 km/h7,4 km/h150°0,0 mm
21:29-2,9 °C78 %999,0 hPa2,6 km/h6,1 km/h156°0,0 mm
21:24-2,8 °C78 %999,0 hPa3,0 km/h6,4 km/h154°0,0 mm
21:19-2,8 °C78 %999,0 hPa2,4 km/h8,9 km/h143°0,0 mm
21:14-2,8 °C78 %999,0 hPa1,4 km/h4,2 km/h152°0,0 mm
21:09-2,7 °C78 %999,0 hPa3,0 km/h5,6 km/h194°0,0 mm
21:04-2,6 °C78 %999,0 hPa1,4 km/h5,0 km/h201°0,0 mm
20:59-2,6 °C78 %999,0 hPa3,2 km/h8,5 km/h157°0,0 mm
20:54-2,7 °C79 %999,0 hPa2,1 km/h3,2 km/h155°0,0 mm
20:49-2,6 °C79 %999,0 hPa1,5 km/h3,5 km/h203°0,0 mm
20:44-2,5 °C79 %999,0 hPa1,0 km/h5,3 km/h190°0,0 mm
20:39-2,4 °C78 %999,0 hPa0,7 km/h3,9 km/h202°0,0 mm
20:34-2,3 °C78 %999,0 hPa1,2 km/h4,2 km/h200°0,0 mm
20:29-2,2 °C78 %999,0 hPa3,2 km/h8,5 km/h246°0,0 mm
20:24-2,1 °C78 %999,0 hPa2,2 km/h7,4 km/h228°0,0 mm
20:19-2,0 °C78 %999,0 hPa1,6 km/h6,4 km/h234°0,0 mm
20:14-2,0 °C78 %999,0 hPa2,2 km/h5,3 km/h195°0,0 mm
20:09-1,9 °C78 %999,0 hPa3,1 km/h9,3 km/h258°0,0 mm
20:04-1,8 °C78 %999,0 hPa2,2 km/h7,9 km/h227°0,0 mm
19:59-1,8 °C78 %999,0 hPa2,8 km/h7,9 km/h238°0,0 mm
19:54-1,7 °C78 %999,0 hPa1,7 km/h5,0 km/h255°0,0 mm
19:49-1,7 °C78 %999,0 hPa2,4 km/h5,6 km/h228°0,0 mm
19:44-1,7 °C78 %999,0 hPa2,8 km/h10,8 km/h235°0,0 mm
19:39-1,6 °C79 %999,0 hPa2,8 km/h8,5 km/h246°0,0 mm
19:34-1,5 °C79 %999,0 hPa2,6 km/h6,4 km/h231°0,0 mm
19:29-1,4 °C79 %999,0 hPa2,1 km/h5,6 km/h199°0,0 mm
19:24-1,4 °C79 %999,0 hPa3,8 km/h8,5 km/h249°0,0 mm
19:19-1,2 °C79 %999,0 hPa2,0 km/h5,3 km/h220°0,0 mm
19:14-1,1 °C78 %999,0 hPa2,2 km/h8,5 km/h230°0,0 mm
19:09-1,0 °C78 %999,0 hPa3,2 km/h8,5 km/h250°0,0 mm
19:04-1,0 °C77 %999,0 hPa3,3 km/h7,9 km/h262°0,0 mm
18:59-0,9 °C77 %999,0 hPa5,0 km/h11,1 km/h247°0,0 mm
18:54-0,9 °C78 %999,0 hPa4,5 km/h8,9 km/h254°0,0 mm
18:49-0,8 °C77 %999,0 hPa3,8 km/h8,9 km/h231°0,0 mm
18:44-0,7 °C78 %999,0 hPa3,8 km/h8,5 km/h237°0,0 mm
18:39-0,7 °C77 %999,0 hPa3,3 km/h10,3 km/h246°0,0 mm
18:34-0,6 °C77 %999,0 hPa4,9 km/h9,7 km/h246°0,0 mm
18:29-0,6 °C77 %999,0 hPa3,5 km/h8,9 km/h246°0,0 mm
18:24-0,6 °C77 %999,0 hPa3,1 km/h7,9 km/h231°0,0 mm
18:19-0,5 °C78 %999,0 hPa2,2 km/h9,3 km/h226°0,0 mm
18:14-0,5 °C77 %999,0 hPa2,3 km/h6,4 km/h273°0,0 mm
18:09-0,5 °C78 %999,0 hPa2,0 km/h5,6 km/h256°0,0 mm
18:04-0,4 °C78 %999,0 hPa0,6 km/h2,4 km/h243°0,0 mm
17:59-0,4 °C78 %999,0 hPa2,1 km/h5,3 km/h249°0,0 mm
17:54-0,4 °C78 %999,0 hPa1,6 km/h8,5 km/h281°0,0 mm
17:49-0,4 °C78 %999,0 hPa0,6 km/h2,4 km/h248°0,0 mm
17:44-0,3 °C78 %999,0 hPa1,3 km/h4,7 km/h266°0,0 mm
17:39-0,3 °C78 %999,0 hPa2,0 km/h5,6 km/h300°0,0 mm
17:34-0,3 °C78 %999,0 hPa2,8 km/h7,4 km/h288°0,0 mm
17:29-0,3 °C78 %999,0 hPa0,8 km/h3,2 km/h300°0,0 mm
17:24-0,4 °C77 %999,0 hPa3,2 km/h7,9 km/h221°0,0 mm
17:19-0,4 °C77 %999,0 hPa1,2 km/h5,3 km/h257°0,0 mm
17:14-0,4 °C76 %999,0 hPa1,0 km/h3,9 km/h221°0,0 mm
17:09-0,4 °C76 %999,0 hPa0,6 km/h2,7 km/h256°0,0 mm
17:04-0,3 °C76 %999,0 hPa1,1 km/h5,3 km/h248°0,0 mm
16:59-0,3 °C76 %998,0 hPa0,5 km/h2,4 km/h234°0,0 mm
16:54-0,3 °C76 %998,0 hPa1,6 km/h5,6 km/h242°0,0 mm
16:49-0,3 °C76 %998,0 hPa0,5 km/h2,7 km/h227°0,0 mm
16:44-0,2 °C76 %999,0 hPa0,7 km/h3,9 km/h266°0,0 mm
16:39-0,2 °C75 %999,0 hPa1,8 km/h6,8 km/h244°0,0 mm
16:34-0,2 °C75 %999,0 hPa1,0 km/h2,7 km/h195°0,0 mm
16:29-0,2 °C75 %998,0 hPa1,1 km/h3,5 km/h273°0,0 mm
16:24-0,1 °C75 %998,0 hPa1,2 km/h3,9 km/h258°0,0 mm
16:19-0,1 °C75 %998,0 hPa1,6 km/h4,7 km/h263°0,0 mm
16:14-0,1 °C74 %999,0 hPa2,2 km/h5,6 km/h262°0,0 mm
16:09-0,1 °C75 %999,0 hPa2,3 km/h3,9 km/h256°0,0 mm
16:040,0 °C74 %999,0 hPa2,8 km/h8,5 km/h274°0,0 mm
15:590,0 °C74 %999,0 hPa2,6 km/h9,7 km/h268°0,0 mm
15:540,1 °C74 %999,0 hPa2,7 km/h8,9 km/h273°0,0 mm
15:490,2 °C74 %999,0 hPa2,7 km/h6,8 km/h255°0,0 mm
15:440,2 °C73 %999,0 hPa2,1 km/h6,4 km/h300°0,0 mm
15:390,3 °C73 %999,0 hPa3,3 km/h12,2 km/h247°0,0 mm
15:340,4 °C73 %999,0 hPa3,1 km/h6,8 km/h238°0,0 mm
15:290,5 °C73 %998,0 hPa1,3 km/h3,9 km/h239°0,0 mm
15:240,6 °C72 %998,0 hPa3,6 km/h13,7 km/h280°0,0 mm
15:190,6 °C71 %998,0 hPa2,5 km/h6,8 km/h282°0,0 mm
15:140,6 °C71 %998,0 hPa2,9 km/h8,9 km/h284°0,0 mm
15:090,7 °C71 %998,0 hPa3,1 km/h5,6 km/h253°0,0 mm
15:040,8 °C70 %998,0 hPa4,2 km/h9,7 km/h242°0,0 mm
14:590,8 °C71 %999,0 hPa3,1 km/h10,3 km/h300°0,0 mm
14:540,8 °C71 %999,0 hPa4,6 km/h9,3 km/h303°0,0 mm
14:490,8 °C71 %999,0 hPa3,4 km/h8,9 km/h267°0,0 mm
14:440,8 °C71 %999,0 hPa4,1 km/h8,5 km/h303°0,0 mm
14:390,9 °C71 %999,0 hPa4,2 km/h9,7 km/h295°0,0 mm
14:340,9 °C71 %999,0 hPa2,5 km/h8,5 km/h336°0,0 mm
14:290,8 °C71 %999,0 hPa4,4 km/h8,9 km/h272°0,0 mm
14:240,6 °C71 %999,0 hPa1,1 km/h5,0 km/h291°0,0 mm
14:190,4 °C72 %999,0 hPa3,8 km/h8,5 km/h270°0,0 mm
14:140,4 °C73 %999,0 hPa3,0 km/h8,5 km/h275°0,0 mm
14:090,4 °C73 %999,0 hPa3,2 km/h9,3 km/h288°0,0 mm
14:040,4 °C73 %999,0 hPa4,1 km/h9,3 km/h279°0,0 mm
13:590,3 °C73 %999,0 hPa2,8 km/h10,3 km/h297°0,0 mm
13:540,2 °C73 %999,0 hPa4,0 km/h9,3 km/h281°0,0 mm
13:490,2 °C73 %999,0 hPa1,9 km/h6,4 km/h280°0,0 mm
13:440,2 °C73 %999,0 hPa4,2 km/h10,8 km/h263°0,0 mm
13:390,2 °C74 %999,0 hPa3,5 km/h8,5 km/h242°0,0 mm
13:340,2 °C73 %999,0 hPa5,9 km/h12,6 km/h267°0,0 mm
13:290,3 °C73 %999,0 hPa3,0 km/h5,3 km/h253°0,0 mm
13:240,2 °C73 %999,0 hPa2,7 km/h6,8 km/h283°0,0 mm
13:190,2 °C73 %999,0 hPa3,9 km/h9,3 km/h290°0,0 mm
13:140,2 °C73 %999,0 hPa4,2 km/h11,1 km/h326°0,0 mm
13:090,2 °C73 %999,0 hPa4,3 km/h8,2 km/h308°0,0 mm
13:040,1 °C73 %999,0 hPa5,0 km/h9,3 km/h241°0,0 mm
12:590,1 °C73 %999,0 hPa5,9 km/h11,4 km/h294°0,0 mm
12:540,1 °C74 %999,0 hPa3,7 km/h10,8 km/h310°0,0 mm
12:490,1 °C74 %999,0 hPa6,5 km/h12,2 km/h271°0,0 mm
12:440,1 °C74 %999,0 hPa3,9 km/h7,9 km/h287°0,0 mm
12:390,1 °C74 %999,0 hPa4,8 km/h9,7 km/h272°0,0 mm
12:340,0 °C74 %999,0 hPa5,0 km/h10,3 km/h323°0,0 mm
12:290,0 °C74 %999,0 hPa3,8 km/h9,3 km/h248°0,0 mm
12:240,0 °C74 %999,0 hPa4,3 km/h9,7 km/h293°0,0 mm
12:190,0 °C74 %999,0 hPa5,1 km/h8,9 km/h255°0,0 mm
12:140,0 °C74 %999,0 hPa5,7 km/h12,2 km/h282°0,0 mm
12:090,0 °C74 %999,0 hPa6,2 km/h16,9 km/h280°0,0 mm
12:040,0 °C74 %999,0 hPa6,0 km/h11,1 km/h290°0,0 mm
11:590,0 °C74 %999,0 hPa5,9 km/h15,8 km/h263°0,0 mm
11:540,0 °C75 %999,0 hPa5,7 km/h11,4 km/h314°0,0 mm
11:49-0,1 °C75 %999,0 hPa6,3 km/h16,4 km/h311°0,0 mm
11:44-0,1 °C75 %999,0 hPa4,4 km/h8,9 km/h315°0,0 mm
11:39-0,1 °C75 %999,0 hPa3,9 km/h7,4 km/h284°0,0 mm
11:340,0 °C75 %999,0 hPa5,5 km/h17,2 km/h305°0,0 mm
11:290,0 °C75 %999,0 hPa6,3 km/h15,8 km/h279°0,0 mm
11:240,1 °C75 %999,0 hPa7,2 km/h21,9 km/h269°0,0 mm
11:190,1 °C75 %999,0 hPa6,9 km/h12,6 km/h280°0,0 mm
11:140,1 °C75 %999,0 hPa5,3 km/h10,8 km/h240°0,0 mm
11:090,0 °C75 %999,0 hPa5,7 km/h10,3 km/h246°0,0 mm
11:040,0 °C75 %999,0 hPa4,9 km/h9,7 km/h289°0,0 mm
10:59-0,1 °C75 %998,0 hPa4,3 km/h8,2 km/h238°0,0 mm
10:54-0,3 °C76 %998,0 hPa4,6 km/h9,7 km/h261°0,0 mm
10:49-0,4 °C77 %998,0 hPa5,6 km/h12,2 km/h284°0,0 mm
10:44-0,5 °C78 %999,0 hPa4,5 km/h8,5 km/h204°0,0 mm
10:39-0,6 °C78 %999,0 hPa4,3 km/h8,5 km/h248°0,0 mm
10:34-0,6 °C79 %999,0 hPa4,1 km/h10,3 km/h285°0,0 mm
10:29-0,7 °C79 %999,0 hPa6,6 km/h11,4 km/h279°0,0 mm
10:24-0,8 °C79 %999,0 hPa3,3 km/h8,5 km/h283°0,0 mm
10:19-0,9 °C80 %999,0 hPa3,2 km/h6,8 km/h268°0,0 mm
10:14-0,9 °C80 %999,0 hPa4,5 km/h8,5 km/h269°0,0 mm
10:09-1,0 °C80 %999,0 hPa4,3 km/h7,4 km/h278°0,0 mm
10:04-1,0 °C81 %999,0 hPa2,9 km/h7,9 km/h289°0,0 mm
09:59-1,1 °C81 %999,0 hPa2,5 km/h7,4 km/h292°0,0 mm
09:54-1,1 °C81 %999,0 hPa5,3 km/h13,7 km/h279°0,0 mm
09:49-1,2 °C81 %999,0 hPa4,1 km/h9,7 km/h272°0,0 mm
09:44-1,2 °C81 %999,0 hPa4,2 km/h12,2 km/h286°0,0 mm
09:39-1,2 °C81 %999,0 hPa3,6 km/h7,9 km/h280°0,0 mm
09:34-1,1 °C81 %999,0 hPa3,7 km/h8,5 km/h282°0,0 mm
09:29-1,1 °C81 %998,0 hPa3,2 km/h7,9 km/h306°0,0 mm
09:24-1,0 °C80 %998,0 hPa4,1 km/h7,9 km/h283°0,0 mm
09:19-1,0 °C81 %998,0 hPa3,4 km/h7,9 km/h262°0,0 mm
09:14-1,0 °C81 %998,0 hPa4,3 km/h9,7 km/h287°0,0 mm
09:09-1,1 °C81 %998,0 hPa4,4 km/h9,7 km/h309°0,0 mm
09:04-1,1 °C80 %998,0 hPa5,1 km/h9,7 km/h282°0,0 mm
08:59-1,1 °C81 %998,0 hPa5,6 km/h12,9 km/h297°0,0 mm
08:54-1,1 °C81 %998,0 hPa5,1 km/h11,4 km/h300°0,0 mm
08:49-1,1 °C80 %998,0 hPa5,9 km/h10,8 km/h295°0,0 mm
08:44-1,0 °C80 %998,0 hPa5,6 km/h12,6 km/h291°0,0 mm
08:39-1,0 °C80 %998,0 hPa5,2 km/h9,3 km/h285°0,0 mm
08:34-1,0 °C80 %998,0 hPa4,3 km/h12,9 km/h303°0,0 mm
08:29-1,0 °C80 %998,0 hPa5,3 km/h10,3 km/h298°0,0 mm
08:24-0,9 °C80 %998,0 hPa7,9 km/h12,2 km/h301°0,0 mm
08:19-0,9 °C80 %998,0 hPa5,8 km/h10,3 km/h284°0,0 mm
08:14-0,9 °C80 %997,0 hPa7,5 km/h16,4 km/h278°0,0 mm
08:09-0,9 °C80 %997,0 hPa7,8 km/h15,0 km/h320°0,0 mm
08:04-0,9 °C81 %997,0 hPa4,5 km/h9,7 km/h306°0,0 mm
07:59-0,8 °C81 %997,0 hPa6,0 km/h11,1 km/h289°0,0 mm
07:54-0,8 °C82 %997,0 hPa6,2 km/h11,1 km/h296°0,0 mm
07:49-0,8 °C82 %997,0 hPa7,0 km/h18,3 km/h312°0,0 mm
07:44-0,8 °C82 %997,0 hPa8,2 km/h12,6 km/h269°0,0 mm
07:39-0,7 °C82 %997,0 hPa7,0 km/h12,2 km/h295°0,0 mm
07:34-0,7 °C82 %997,0 hPa7,1 km/h12,6 km/h17°0,0 mm
07:29-0,7 °C82 %997,0 hPa7,8 km/h13,7 km/h288°0,0 mm
07:24-0,7 °C82 %997,0 hPa5,9 km/h12,2 km/h276°0,0 mm
07:19-0,7 °C82 %997,0 hPa6,8 km/h10,8 km/h298°0,0 mm
07:14-0,7 °C82 %997,0 hPa7,0 km/h11,1 km/h269°0,0 mm
07:09-0,7 °C82 %997,0 hPa6,1 km/h12,2 km/h309°0,0 mm
07:04-0,6 °C82 %997,0 hPa7,4 km/h16,4 km/h300°0,0 mm
06:59-0,6 °C82 %997,0 hPa9,2 km/h16,4 km/h282°0,0 mm
06:54-0,6 °C83 %997,0 hPa8,6 km/h15,0 km/h280°0,0 mm
06:49-0,6 °C83 %997,0 hPa6,2 km/h10,3 km/h272°0,0 mm
06:44-0,6 °C83 %995,9 hPa7,5 km/h18,3 km/h297°0,0 mm
06:39-0,6 °C83 %995,9 hPa7,9 km/h13,2 km/h295°0,0 mm
06:34-0,6 °C83 %995,9 hPa7,5 km/h17,5 km/h291°0,0 mm
06:29-0,5 °C82 %995,9 hPa8,3 km/h16,4 km/h303°0,0 mm
06:24-0,5 °C82 %995,9 hPa7,2 km/h12,6 km/h311°0,0 mm
06:19-0,5 °C81 %995,9 hPa7,9 km/h11,4 km/h297°0,0 mm
06:14-0,5 °C80 %995,9 hPa7,4 km/h15,0 km/h319°0,0 mm
06:09-0,4 °C80 %995,9 hPa8,4 km/h15,8 km/h262°0,0 mm
06:04-0,4 °C80 %995,9 hPa7,0 km/h17,2 km/h278°0,0 mm
05:59-0,4 °C80 %995,9 hPa6,9 km/h10,8 km/h325°0,0 mm
05:54-0,4 °C81 %995,9 hPa7,1 km/h11,4 km/h317°0,0 mm
05:49-0,3 °C81 %995,9 hPa4,8 km/h11,4 km/h323°0,0 mm
05:44-0,3 °C81 %995,9 hPa8,4 km/h17,2 km/h300°0,0 mm
05:39-0,3 °C82 %995,9 hPa5,7 km/h10,3 km/h313°0,0 mm
05:34-0,3 °C82 %995,9 hPa7,0 km/h11,4 km/h296°0,0 mm
05:29-0,3 °C82 %995,9 hPa6,0 km/h10,3 km/h317°0,0 mm
05:24-0,3 °C82 %995,9 hPa5,8 km/h12,2 km/h290°0,0 mm
05:19-0,3 °C81 %995,9 hPa6,5 km/h18,7 km/h322°0,0 mm
05:14-0,3 °C82 %995,9 hPa6,2 km/h16,4 km/h275°0,0 mm
05:09-0,3 °C81 %995,9 hPa5,8 km/h11,4 km/h312°0,0 mm
05:04-0,3 °C81 %995,9 hPa6,7 km/h15,8 km/h297°0,0 mm
04:59-0,3 °C81 %994,9 hPa5,3 km/h11,1 km/h290°0,0 mm
04:54-0,3 °C80 %994,9 hPa5,8 km/h12,6 km/h259°0,0 mm
04:49-0,3 °C80 %994,9 hPa6,2 km/h16,4 km/h323°0,0 mm
04:44-0,3 °C79 %994,9 hPa8,3 km/h15,0 km/h300°0,0 mm
04:39-0,3 °C80 %994,9 hPa7,5 km/h12,2 km/h275°0,0 mm
04:34-0,3 °C80 %994,9 hPa6,7 km/h15,0 km/h287°0,0 mm
04:29-0,3 °C81 %994,9 hPa6,3 km/h10,8 km/h299°0,0 mm
04:24-0,3 °C82 %994,9 hPa6,5 km/h11,1 km/h307°0,0 mm
04:19-0,4 °C81 %994,9 hPa7,4 km/h15,0 km/h289°0,0 mm
04:14-0,4 °C81 %994,9 hPa7,2 km/h13,7 km/h309°0,0 mm
04:09-0,5 °C82 %994,9 hPa6,6 km/h11,1 km/h275°0,0 mm
04:04-0,5 °C82 %994,9 hPa5,8 km/h12,6 km/h295°0,0 mm
03:59-0,5 °C83 %994,9 hPa6,1 km/h10,8 km/h295°0,0 mm
03:54-0,6 °C84 %994,9 hPa7,6 km/h11,1 km/h316°0,0 mm
03:49-0,7 °C84 %994,9 hPa6,6 km/h12,2 km/h269°0,0 mm
03:44-0,7 °C85 %994,9 hPa4,6 km/h10,3 km/h283°0,0 mm
03:39-0,7 °C86 %994,9 hPa7,6 km/h12,6 km/h297°0,0 mm
03:34-0,6 °C86 %994,9 hPa6,8 km/h14,3 km/h267°0,0 mm
03:24-0,6 °C83 %994,9 hPa6,6 km/h13,7 km/h297°0,0 mm
03:19-0,6 °C83 %994,9 hPa7,3 km/h17,2 km/h285°0,0 mm
03:14-0,6 °C84 %994,9 hPa6,1 km/h11,4 km/h259°0,0 mm
03:09-0,6 °C84 %994,9 hPa8,6 km/h15,8 km/h305°0,0 mm
03:04-0,7 °C84 %994,9 hPa7,0 km/h10,3 km/h296°0,0 mm
02:59-0,7 °C84 %993,9 hPa5,6 km/h10,3 km/h16°0,0 mm
02:54-0,7 °C84 %993,9 hPa5,0 km/h10,3 km/h294°0,0 mm
02:49-0,8 °C84 %993,9 hPa5,8 km/h14,3 km/h296°0,0 mm
02:44-0,9 °C85 %993,9 hPa4,6 km/h11,4 km/h315°0,0 mm
02:39-1,0 °C86 %993,9 hPa7,2 km/h16,4 km/h299°0,0 mm
02:34-1,1 °C87 %993,9 hPa6,1 km/h12,9 km/h273°0,0 mm
02:29-1,2 °C89 %993,9 hPa10,2 km/h17,2 km/h264°0,0 mm
02:24-1,2 °C90 %993,9 hPa10,3 km/h28,3 km/h282°0,0 mm
02:19-1,2 °C91 %993,9 hPa10,9 km/h20,1 km/h289°0,0 mm
02:14-1,2 °C89 %993,9 hPa7,3 km/h23,3 km/h289°0,0 mm
02:09-1,2 °C89 %993,9 hPa4,3 km/h8,9 km/h289°0,0 mm
02:04-1,2 °C89 %993,9 hPa6,2 km/h12,2 km/h231°0,0 mm
01:59-1,2 °C89 %993,9 hPa6,1 km/h10,8 km/h260°0,0 mm
01:54-1,2 °C89 %993,9 hPa6,0 km/h15,0 km/h261°0,0 mm
01:49-1,2 °C89 %993,9 hPa4,4 km/h8,5 km/h284°0,0 mm
01:44-1,3 °C90 %992,9 hPa5,6 km/h8,9 km/h238°0,0 mm
01:39-1,3 °C90 %992,9 hPa7,9 km/h18,7 km/h273°0,0 mm
01:34-1,4 °C90 %992,9 hPa8,2 km/h20,1 km/h269°0,0 mm
01:29-1,4 °C91 %993,9 hPa4,9 km/h18,3 km/h291°0,0 mm
01:24-1,4 °C92 %993,9 hPa7,2 km/h17,5 km/h266°0,0 mm
01:19-1,2 °C92 %993,9 hPa6,0 km/h16,4 km/h229°0,0 mm
01:14-1,1 °C91 %993,9 hPa7,4 km/h15,8 km/h290°0,0 mm
01:09-1,0 °C88 %993,9 hPa8,6 km/h20,8 km/h283°0,0 mm
01:04-0,9 °C87 %993,9 hPa9,7 km/h25,1 km/h291°0,0 mm
00:59-0,8 °C84 %992,9 hPa9,4 km/h28,3 km/h294°0,0 mm
00:54-0,8 °C84 %992,9 hPa8,5 km/h19,0 km/h272°0,0 mm
00:49-0,8 °C84 %992,9 hPa6,5 km/h16,4 km/h290°0,0 mm
00:44-0,9 °C84 %992,9 hPa3,5 km/h7,9 km/h311°0,0 mm
00:39-0,9 °C84 %992,9 hPa5,4 km/h9,3 km/h284°0,0 mm
00:34-0,9 °C85 %992,9 hPa5,0 km/h15,8 km/h310°0,0 mm
00:29-0,9 °C86 %992,9 hPa5,4 km/h10,3 km/h277°0,0 mm
00:24-0,9 °C86 %992,9 hPa5,1 km/h9,3 km/h286°0,0 mm
00:19-0,9 °C87 %992,9 hPa5,5 km/h9,3 km/h285°0,0 mm
00:14-0,9 °C87 %992,9 hPa8,1 km/h15,8 km/h270°0,0 mm
00:09-0,9 °C87 %992,9 hPa4,7 km/h10,8 km/h271°0,0 mm
00:04-0,9 °C89 %992,9 hPa5,5 km/h15,0 km/h278°0,0 mm